Time;durP1;ratioP1;P1;durP2;ratioP2;P2;SDS_P1;SDS_P2;PMS_P1;PMS_P2;Temp;Humidity;BMP_temperature;BMP_pressure;BME280_temperature;BME280_humidity;BME280_pressure;Samples;Min_cycle;Max_cycle;Signal;HPM_P1;HPM_P2
2021/09/19 00:02:11;;;;;;;2.58;2.38;;;19.90;99.90;;;;;;5074168;28;20291;-76
2021/09/19 00:04:38;;;;;;;2.17;2.00;;;19.80;99.90;;;;;;5073529;28;20222;-76
2021/09/19 00:07:06;;;;;;;3.05;2.85;;;19.80;99.90;;;;;;5075523;28;20221;-77
2021/09/19 00:09:33;;;;;;;3.20;2.97;;;19.80;99.90;;;;;;5074648;28;20225;-76
2021/09/19 00:12:00;;;;;;;3.67;3.38;;;19.80;99.90;;;;;;5069639;28;20222;-76
2021/09/19 00:14:29;;;;;;;4.22;3.10;;;19.60;99.90;;;;;;5071416;28;20226;-76
2021/09/19 00:16:56;;;;;;;3.08;2.88;;;19.50;99.90;;;;;;5073847;28;20217;-76
2021/09/19 00:19:23;;;;;;;4.18;3.40;;;19.50;99.90;;;;;;5076758;28;20229;-76
2021/09/19 00:21:50;;;;;;;2.55;2.35;;;19.50;99.90;;;;;;5068872;28;20218;-76
2021/09/19 00:24:17;;;;;;;2.97;2.38;;;19.50;99.90;;;;;;5072272;28;20568;-76
2021/09/19 00:26:44;;;;;;;2.08;1.98;;;19.60;99.90;;;;;;5067041;28;20715;-76
2021/09/19 00:29:11;;;;;;;2.40;2.20;;;19.70;99.90;;;;;;5066779;28;20232;-76
2021/09/19 00:31:40;;;;;;;2.85;2.65;;;19.70;99.90;;;;;;5048340;22;20234;-77
2021/09/19 00:34:07;;;;;;;3.53;3.22;;;19.70;99.90;;;;;;5016498;28;20223;-78
2021/09/19 00:36:34;;;;;;;3.20;3.00;;;19.80;99.90;;;;;;5022240;28;20227;-77
2021/09/19 00:39:01;;;;;;;3.50;3.15;;;19.80;99.90;;;;;;5019008;28;20223;-78
2021/09/19 00:41:28;;;;;;;2.80;2.60;;;19.80;99.90;;;;;;5012002;28;20254;-78
2021/09/19 00:43:55;;;;;;;2.50;2.30;;;19.70;99.90;;;;;;5006542;28;20228;-77
2021/09/19 00:46:22;;;;;;;3.50;2.58;;;19.70;99.90;;;;;;5007169;28;20290;-78
2021/09/19 00:48:50;;;;;;;3.03;2.80;;;19.70;99.90;;;;;;5002365;28;20243;-78
2021/09/19 00:51:17;;;;;;;2.75;2.55;;;19.80;99.90;;;;;;5007263;28;20228;-78
2021/09/19 00:53:46;;;;;;;3.20;3.00;;;19.70;99.90;;;;;;5004181;28;20240;-78
2021/09/19 00:56:16;;;;;;;3.35;3.05;;;19.70;99.90;;;;;;5005874;28;20232;-78
2021/09/19 00:58:51;;;;;;;3.20;3.00;;;19.70;99.90;;;;;;5003781;28;20311;-78
2021/09/19 01:01:18;;;;;;;2.90;2.70;;;19.50;99.90;;;;;;5005713;28;20296;-77
2021/09/19 01:03:46;;;;;;;2.40;2.22;;;19.50;99.90;;;;;;5005296;28;20656;-78
2021/09/19 01:06:17;;;;;;;2.72;2.53;;;19.40;99.90;;;;;;5004191;28;20263;-78
2021/09/19 01:08:44;;;;;;;3.42;3.13;;;19.40;99.90;;;;;;5004951;28;20310;-78
2021/09/19 01:11:12;;;;;;;3.10;2.90;;;19.40;99.90;;;;;;5003214;28;20240;-78
2021/09/19 01:13:41;;;;;;;2.92;2.70;;;19.30;99.90;;;;;;5009908;28;20360;-79
2021/09/19 01:16:10;;;;;;;3.78;3.47;;;19.20;99.90;;;;;;5006351;28;20315;-79
2021/09/19 01:18:38;;;;;;;3.25;3.05;;;19.10;99.90;;;;;;5005279;28;20239;-78
2021/09/19 01:21:06;;;;;;;3.53;3.22;;;19.10;99.90;;;;;;5006939;28;20302;-78
2021/09/19 01:23:34;;;;;;;3.30;3.10;;;19.10;99.90;;;;;;5009073;28;20260;-78
2021/09/19 01:26:01;;;;;;;3.22;3.00;;;19.00;99.90;;;;;;5005226;28;20656;-79
2021/09/19 01:28:29;;;;;;;3.25;2.92;;;19.10;99.90;;;;;;5005043;28;20231;-78
2021/09/19 01:30:56;;;;;;;3.05;2.85;;;19.10;99.90;;;;;;5007443;28;20282;-79
2021/09/19 01:33:23;;;;;;;3.03;2.83;;;19.10;99.90;;;;;;5005413;28;20224;-78
2021/09/19 01:35:50;;;;;;;3.60;3.30;;;19.10;99.90;;;;;;5017307;28;20231;-79
2021/09/19 01:38:20;;;;;;;3.40;3.17;;;19.10;99.90;;;;;;5002661;28;20270;-79
2021/09/19 01:40:48;;;;;;;3.10;2.90;;;19.10;99.90;;;;;;5001110;28;20241;-79
2021/09/19 01:43:15;;;;;;;3.60;3.30;;;19.10;99.90;;;;;;4996042;28;20679;-79
2021/09/19 01:45:42;;;;;;;3.80;3.50;;;19.20;99.90;;;;;;5005034;28;20224;-79
2021/09/19 01:48:09;;;;;;;3.78;3.47;;;19.20;99.90;;;;;;5005532;28;20777;-78
2021/09/19 01:50:36;;;;;;;3.47;3.17;;;19.10;99.90;;;;;;5005486;28;20302;-78
2021/09/19 01:53:03;;;;;;;3.15;2.95;;;19.10;99.90;;;;;;5002583;28;20220;-77
2021/09/19 01:55:31;;;;;;;3.85;3.55;;;19.00;99.90;;;;;;5010770;28;20710;-78
2021/09/19 01:57:59;;;;;;;4.00;3.70;;;19.00;99.90;;;;;;5006772;28;22046;-79
2021/09/19 02:00:26;;;;;;;4.50;4.20;;;18.80;99.90;;;;;;5005892;28;20664;-78
2021/09/19 02:02:54;;;;;;;4.70;4.30;;;18.70;99.90;;;;;;5005187;28;20632;-77
2021/09/19 02:05:21;;;;;;;4.35;4.03;;;18.60;99.90;;;;;;5003090;28;20363;-79
2021/09/19 02:07:48;;;;;;;3.45;3.17;;;18.60;99.90;;;;;;5008841;28;20305;-78
2021/09/19 02:10:18;;;;;;;3.15;2.95;;;18.60;99.90;;;;;;5010136;28;20664;-78
2021/09/19 02:12:45;;;;;;;2.50;2.40;;;18.60;99.90;;;;;;5003324;28;20255;-78
2021/09/19 02:15:16;;;;;;;3.60;3.30;;;18.70;99.90;;;;;;5010313;28;20231;-78
2021/09/19 02:17:44;;;;;;;3.58;3.28;;;18.70;99.90;;;;;;5009058;28;20220;-78
2021/09/19 02:20:15;;;;;;;5.80;5.30;;;18.70;99.90;;;;;;5010513;28;20232;-78
2021/09/19 02:22:43;;;;;;;5.03;4.53;;;18.70;99.90;;;;;;5010773;28;20290;-78
2021/09/19 02:25:11;;;;;;;4.03;3.72;;;18.60;99.90;;;;;;5006321;28;20302;-78
2021/09/19 02:27:38;;;;;;;3.50;3.25;;;18.50;99.90;;;;;;5008267;28;20224;-78
2021/09/19 02:30:07;;;;;;;3.55;3.25;;;18.60;99.90;;;;;;5010345;28;20231;-78
2021/09/19 02:32:35;;;;;;;3.85;3.55;;;18.60;99.90;;;;;;5008884;28;20293;-77
2021/09/19 02:35:02;;;;;;;3.97;3.67;;;18.60;99.90;;;;;;5012431;28;20220;-78
2021/09/19 02:37:29;;;;;;;3.45;3.15;;;18.70;99.90;;;;;;5007110;28;20578;-78
2021/09/19 02:39:56;;;;;;;2.97;2.78;;;18.60;99.90;;;;;;5006993;28;20236;-78
2021/09/19 02:42:23;;;;;;;3.30;3.00;;;18.70;99.90;;;;;;5006561;28;20702;-78
2021/09/19 02:44:50;;;;;;;4.10;3.42;;;18.70;99.90;;;;;;5005652;28;20236;-78
2021/09/19 02:47:18;;;;;;;2.72;2.50;;;18.80;99.90;;;;;;5006367;28;20286;-78
2021/09/19 02:49:46;;;;;;;2.85;2.65;;;18.90;99.90;;;;;;5012143;28;20612;-78
2021/09/19 02:52:13;;;;;;;3.13;2.92;;;18.90;99.90;;;;;;5010256;28;20220;-78
2021/09/19 02:54:40;;;;;;;2.80;2.60;;;19.00;99.90;;;;;;5006396;28;20286;-79
2021/09/19 02:57:07;;;;;;;2.63;2.42;;;19.00;99.90;;;;;;5005763;28;20773;-78
2021/09/19 02:59:34;;;;;;;2.63;2.42;;;19.00;99.90;;;;;;5004065;28;20220;-78
2021/09/19 03:02:01;;;;;;;2.70;2.50;;;19.10;99.90;;;;;;5011836;28;20236;-78
2021/09/19 03:04:28;;;;;;;3.20;3.00;;;19.10;99.90;;;;;;5009901;28;20220;-78
2021/09/19 03:06:56;;;;;;;3.17;2.97;;;19.00;99.90;;;;;;5004839;28;20244;-77
2021/09/19 03:09:23;;;;;;;2.88;2.67;;;19.00;99.90;;;;;;5007733;28;20286;-78
2021/09/19 03:11:51;;;;;;;4.03;3.47;;;19.00;99.90;;;;;;5005277;28;20236;-78
2021/09/19 03:14:18;;;;;;;2.88;2.50;;;18.90;99.90;;;;;;5015626;28;20240;-78
2021/09/19 03:16:45;;;;;;;3.03;2.83;;;18.90;99.90;;;;;;5008223;28;20228;-78
2021/09/19 03:19:12;;;;;;;2.83;2.58;;;18.90;99.90;;;;;;5006892;28;20611;-78
2021/09/19 03:21:39;;;;;;;2.83;2.63;;;18.90;99.90;;;;;;4999947;28;20287;-78
2021/09/19 03:24:08;;;;;;;2.85;2.65;;;19.00;99.90;;;;;;5006585;28;20231;-78
2021/09/19 03:26:35;;;;;;;3.20;2.90;;;19.00;99.90;;;;;;5006770;28;20229;-78
2021/09/19 03:29:02;;;;;;;2.28;2.13;;;18.90;99.90;;;;;;5007954;28;20224;-79
2021/09/19 03:31:29;;;;;;;2.60;2.40;;;18.80;99.90;;;;;;5006617;28;20274;-79
2021/09/19 03:33:56;;;;;;;2.85;2.60;;;18.80;99.90;;;;;;5004691;28;20294;-77
2021/09/19 03:36:23;;;;;;;2.83;2.63;;;18.80;99.90;;;;;;5002162;28;20224;-79
2021/09/19 03:38:50;;;;;;;3.03;2.60;;;18.80;99.90;;;;;;5002105;28;20303;-79
2021/09/19 03:41:18;;;;;;;2.55;2.42;;;18.90;99.90;;;;;;5004685;28;20232;-78
2021/09/19 03:43:46;;;;;;;3.00;2.80;;;18.80;99.90;;;;;;5002966;28;20683;-78
2021/09/19 03:46:13;;;;;;;2.78;2.58;;;18.80;99.90;;;;;;5005524;28;20232;-78
2021/09/19 03:48:40;;;;;;;2.50;2.30;;;18.80;99.90;;;;;;5018216;28;20219;-78
2021/09/19 03:51:07;;;;;;;3.13;2.88;;;18.80;99.90;;;;;;5025006;28;20224;-78
2021/09/19 03:53:34;;;;;;;2.63;2.42;;;18.80;99.90;;;;;;5023340;28;20292;-78
2021/09/19 03:56:01;;;;;;;3.33;2.75;;;18.80;99.90;;;;;;5024475;28;20223;-78
2021/09/19 03:58:29;;;;;;;2.83;2.60;;;18.80;99.90;;;;;;5024427;28;20231;-78
2021/09/19 04:00:56;;;;;;;2.50;2.30;;;18.80;99.90;;;;;;5021906;28;20234;-78
2021/09/19 04:03:23;;;;;;;2.92;2.72;;;18.80;99.90;;;;;;5021297;28;20227;-78
2021/09/19 04:05:50;;;;;;;2.70;2.50;;;18.80;99.90;;;;;;5023116;28;20323;-78
2021/09/19 04:08:17;;;;;;;3.17;2.97;;;18.80;99.90;;;;;;5024987;28;20227;-78
2021/09/19 04:10:45;;;;;;;2.83;2.40;;;18.80;99.90;;;;;;5026017;28;20232;-78
2021/09/19 04:13:12;;;;;;;2.85;2.65;;;18.80;99.90;;;;;;5024502;28;20594;-78
2021/09/19 04:15:41;;;;;;;2.63;2.42;;;18.80;99.90;;;;;;5025568;28;20239;-79
2021/09/19 04:18:08;;;;;;;2.60;2.40;;;18.80;99.90;;;;;;5019421;28;20223;-78
2021/09/19 04:20:35;;;;;;;2.78;2.58;;;18.80;99.90;;;;;;5015410;28;20232;-78
2021/09/19 04:23:03;;;;;;;2.92;2.72;;;18.80;99.90;;;;;;5024632;28;20223;-78
2021/09/19 04:25:30;;;;;;;2.67;2.47;;;18.80;99.90;;;;;;5025684;28;20223;-78
2021/09/19 04:27:57;;;;;;;2.78;2.53;;;18.80;99.90;;;;;;5022408;28;20293;-78
2021/09/19 04:30:24;;;;;;;2.90;2.70;;;18.90;99.90;;;;;;5023848;28;20769;-78
2021/09/19 04:32:53;;;;;;;2.13;2.03;;;18.90;99.90;;;;;;5019335;28;20232;-79
2021/09/19 04:35:20;;;;;;;2.83;2.63;;;18.90;99.90;;;;;;5032015;28;20277;-78
2021/09/19 04:37:47;;;;;;;2.50;2.30;;;18.90;99.90;;;;;;5024831;28;20223;-78
2021/09/19 04:40:14;;;;;;;3.08;2.78;;;18.80;99.90;;;;;;5026656;28;20282;-78
2021/09/19 04:42:41;;;;;;;3.10;2.83;;;18.90;99.90;;;;;;5024868;28;20243;-78
2021/09/19 04:45:10;;;;;;;2.97;2.78;;;18.90;99.90;;;;;;5035555;28;20226;-79
2021/09/19 04:47:37;;;;;;;3.45;3.15;;;18.80;99.90;;;;;;5024903;28;20742;-78
2021/09/19 04:50:07;;;;;;;3.25;3.00;;;18.80;99.90;;;;;;5022999;28;20968;-78
2021/09/19 04:52:34;;;;;;;3.45;3.25;;;18.80;99.90;;;;;;5021711;28;20232;-78
2021/09/19 04:55:01;;;;;;;4.05;3.75;;;18.70;99.90;;;;;;5024303;28;20272;-78
2021/09/19 04:57:28;;;;;;;4.65;4.30;;;18.60;99.90;;;;;;5020641;28;20659;-78
2021/09/19 04:59:55;;;;;;;3.72;3.40;;;18.40;99.90;;;;;;5016078;28;20598;-77
2021/09/19 05:02:22;;;;;;;3.65;3.35;;;18.30;99.90;;;;;;5021865;28;20227;-78
2021/09/19 05:04:49;;;;;;;3.67;3.35;;;18.20;99.90;;;;;;5019417;28;20224;-78
2021/09/19 05:07:17;;;;;;;3.17;2.97;;;18.30;99.90;;;;;;5021730;28;20285;-79
2021/09/19 05:09:44;;;;;;;3.50;3.20;;;18.30;99.90;;;;;;5022133;28;20239;-78
2021/09/19 05:12:12;;;;;;;3.70;3.40;;;18.30;99.90;;;;;;5020716;28;20297;-78
2021/09/19 05:14:39;;;;;;;4.15;3.75;;;18.30;99.90;;;;;;5021407;28;20227;-77
2021/09/19 05:17:06;;;;;;;3.75;3.45;;;18.40;99.90;;;;;;5017674;28;20227;-78
2021/09/19 05:19:33;;;;;;;3.67;3.38;;;18.30;99.90;;;;;;5023089;28;20223;-78
2021/09/19 05:22:00;;;;;;;3.45;3.10;;;18.40;99.90;;;;;;5026078;28;20227;-78
2021/09/19 05:24:28;;;;;;;3.95;3.65;;;18.40;99.90;;;;;;4997018;28;20290;-78
2021/09/19 05:26:55;;;;;;;4.15;3.75;;;18.30;99.90;;;;;;5034735;28;20280;-77
2021/09/19 05:29:22;;;;;;;5.32;4.93;;;18.20;99.90;;;;;;5019938;28;20285;-78
2021/09/19 05:31:49;;;;;;;4.90;4.50;;;18.20;99.90;;;;;;5021796;28;20231;-76
2021/09/19 05:34:16;;;;;;;5.18;4.50;;;18.20;99.90;;;;;;5019935;28;20235;-78
2021/09/19 05:36:43;;;;;;;5.10;4.63;;;18.30;99.90;;;;;;5019077;28;20228;-78
2021/09/19 05:39:10;;;;;;;4.65;4.22;;;18.30;99.90;;;;;;5018892;28;20252;-78
2021/09/19 05:41:39;;;;;;;4.78;4.38;;;18.30;99.90;;;;;;5018983;28;20223;-78
2021/09/19 05:44:06;;;;;;;5.68;5.15;;;18.30;99.90;;;;;;5021208;28;20235;-78
2021/09/19 05:46:33;;;;;;;5.82;5.35;;;18.30;99.90;;;;;;5018404;28;20227;-78
2021/09/19 05:49:00;;;;;;;4.53;4.15;;;18.30;99.90;;;;;;5023141;28;20265;-78
2021/09/19 05:51:27;;;;;;;4.13;3.78;;;18.30;99.90;;;;;;5020343;28;20223;-79
2021/09/19 05:53:54;;;;;;;5.00;4.57;;;18.30;99.90;;;;;;5019461;28;20270;-78
2021/09/19 05:56:21;;;;;;;4.60;4.20;;;18.30;99.90;;;;;;5016637;28;20282;-77
2021/09/19 05:58:49;;;;;;;4.63;4.22;;;18.40;99.90;;;;;;5022475;28;20239;-78
2021/09/19 06:01:17;;;;;;;4.22;3.85;;;18.50;99.90;;;;;;5020228;28;20235;-78
2021/09/19 06:03:44;;;;;;;4.13;3.67;;;18.50;99.90;;;;;;5018479;28;20685;-78
2021/09/19 06:06:11;;;;;;;3.85;3.55;;;18.60;99.90;;;;;;5015148;28;20231;-79
2021/09/19 06:08:38;;;;;;;4.22;3.85;;;18.70;99.90;;;;;;5018415;28;20235;-78
2021/09/19 06:11:05;;;;;;;3.90;3.60;;;18.80;99.90;;;;;;5021304;28;20734;-79
2021/09/19 06:13:32;;;;;;;4.03;3.72;;;18.90;99.90;;;;;;5026981;28;20223;-78
2021/09/19 06:16:01;;;;;;;3.90;3.55;;;19.00;99.90;;;;;;5024850;28;20322;-79
2021/09/19 06:18:28;;;;;;;4.53;4.13;;;19.00;99.90;;;;;;5026454;28;20227;-78
2021/09/19 06:20:56;;;;;;;5.32;4.82;;;19.10;99.90;;;;;;5018337;28;20228;-78
2021/09/19 06:23:23;;;;;;;5.18;4.78;;;19.20;99.90;;;;;;5021967;28;20306;-79
2021/09/19 06:25:51;;;;;;;4.50;4.07;;;19.10;99.90;;;;;;5030876;28;20224;-78
2021/09/19 06:28:18;;;;;;;5.65;5.07;;;19.00;99.90;;;;;;5021812;28;20228;-78
2021/09/19 06:30:46;;;;;;;4.40;4.10;;;19.00;99.90;;;;;;5037557;22;20235;-77
2021/09/19 06:33:14;;;;;;;4.20;3.90;;;19.00;99.90;;;;;;5000512;28;20236;-77
2021/09/19 06:35:41;;;;;;;4.35;4.00;;;19.00;99.90;;;;;;5002259;28;20746;-77
2021/09/19 06:38:09;;;;;;;4.43;4.05;;;19.00;99.90;;;;;;4998519;28;20808;-77
2021/09/19 06:40:36;;;;;;;4.47;4.15;;;19.00;99.90;;;;;;4997437;28;20258;-78
2021/09/19 06:43:03;;;;;;;4.07;3.70;;;19.00;99.90;;;;;;4991942;28;20224;-78
2021/09/19 06:45:30;;;;;;;4.18;3.80;;;19.00;99.90;;;;;;4992546;28;20224;-76
2021/09/19 06:47:57;;;;;;;3.85;3.55;;;19.00;99.90;;;;;;4988855;28;20232;-79
2021/09/19 06:50:26;;;;;;;3.88;3.58;;;19.00;99.90;;;;;;4996772;28;20269;-77
2021/09/19 06:52:53;;;;;;;4.55;4.15;;;19.10;99.90;;;;;;5001799;28;20228;-78
2021/09/19 06:55:20;;;;;;;4.53;4.18;;;19.10;99.90;;;;;;4990431;28;20384;-78
2021/09/19 06:57:47;;;;;;;3.80;3.50;;;19.10;99.90;;;;;;4990751;28;20730;-77
2021/09/19 07:00:15;;;;;;;4.32;3.92;;;19.20;99.90;;;;;;4997138;28;20242;-77
2021/09/19 07:02:42;;;;;;;4.55;4.15;;;19.30;99.90;;;;;;5000337;28;20232;-79
2021/09/19 07:05:10;;;;;;;4.13;3.83;;;19.30;99.90;;;;;;5000144;28;20228;-77
2021/09/19 07:07:38;;;;;;;4.43;4.13;;;19.30;99.90;;;;;;4997020;28;20228;-78
2021/09/19 07:10:07;;;;;;;4.00;3.63;;;19.40;99.90;;;;;;4996497;28;20223;-79
2021/09/19 07:12:34;;;;;;;3.72;3.42;;;19.40;99.90;;;;;;4997678;28;20227;-77
2021/09/19 07:15:01;;;;;;;3.92;3.63;;;19.40;99.90;;;;;;4997012;28;20227;-78
2021/09/19 07:17:28;;;;;;;4.10;3.80;;;19.40;99.90;;;;;;4995150;28;20220;-79
2021/09/19 07:19:55;;;;;;;3.72;3.42;;;19.40;99.90;;;;;;4997555;28;20236;-79
2021/09/19 07:22:22;;;;;;;3.78;3.47;;;19.20;99.90;;;;;;5000618;28;20887;-79
2021/09/19 07:24:50;;;;;;;3.58;3.25;;;19.20;99.90;;;;;;5001381;28;20236;-78
2021/09/19 07:27:17;;;;;;;3.40;3.10;;;19.20;99.90;;;;;;4985040;28;20231;-78
2021/09/19 07:29:45;;;;;;;3.00;2.80;;;19.10;99.90;;;;;;4996288;28;20309;-78
2021/09/19 07:32:13;;;;;;;3.30;3.05;;;19.00;99.90;;;;;;5019925;28;20235;-76
2021/09/19 07:34:41;;;;;;;3.10;2.90;;;19.00;99.90;;;;;;5032987;28;20293;-78
2021/09/19 07:37:09;;;;;;;4.05;3.75;;;19.00;99.90;;;;;;5035350;28;20242;-77
2021/09/19 07:39:37;;;;;;;3.55;3.35;;;18.80;99.90;;;;;;5032895;28;20223;-78
2021/09/19 07:42:06;;;;;;;3.72;3.42;;;18.70;99.90;;;;;;5029680;28;20657;-76
2021/09/19 07:44:35;;;;;;;3.72;3.42;;;18.60;99.90;;;;;;5036135;28;20227;-79
2021/09/19 07:47:02;;;;;;;3.70;3.40;;;18.50;99.90;;;;;;5040691;28;20685;-78
2021/09/19 07:49:29;;;;;;;3.33;3.03;;;18.50;99.90;;;;;;5037399;28;20306;-77
2021/09/19 07:51:57;;;;;;;3.60;3.30;;;18.70;99.90;;;;;;5027552;28;20285;-76
2021/09/19 07:54:24;;;;;;;4.32;3.20;;;18.80;99.90;;;;;;5026978;28;20222;-78
2021/09/19 07:56:52;;;;;;;4.00;3.70;;;19.00;99.90;;;;;;5030019;28;20223;-77
2021/09/19 07:59:20;;;;;;;3.25;3.05;;;19.20;99.90;;;;;;5032781;28;20230;-77
2021/09/19 08:01:47;;;;;;;3.67;3.38;;;19.40;99.90;;;;;;5035653;28;20233;-78
2021/09/19 08:04:14;;;;;;;3.97;3.67;;;19.40;99.90;;;;;;5039063;28;20235;-77
2021/09/19 08:06:41;;;;;;;12.40;4.38;;;19.40;99.90;;;;;;5035376;28;20290;-79
2021/09/19 08:09:08;;;;;;;3.58;3.25;;;19.40;99.90;;;;;;5038248;28;20264;-77
2021/09/19 08:11:35;;;;;;;41.97;5.68;;;19.10;99.90;;;;;;5037425;28;20284;-76
2021/09/19 08:14:06;;;;;;;13.65;3.95;;;18.90;99.90;;;;;;5035864;28;20638;-76
2021/09/19 08:16:36;;;;;;;3.63;3.33;;;18.80;99.90;;;;;;5039595;28;20226;-77
2021/09/19 08:19:04;;;;;;;3.17;2.80;;;18.90;99.90;;;;;;5038961;28;20276;-78
2021/09/19 08:21:31;;;;;;;3.15;2.95;;;18.90;99.90;;;;;;5041172;28;20227;-78
2021/09/19 08:23:58;;;;;;;3.83;2.85;;;19.00;99.90;;;;;;5035582;28;20219;-78
2021/09/19 08:26:25;;;;;;;3.35;2.78;;;19.30;99.90;;;;;;5033783;28;20633;-77
2021/09/19 08:28:52;;;;;;;2.60;2.40;;;19.50;99.90;;;;;;5033090;28;20231;-77
2021/09/19 08:31:19;;;;;;;2.88;2.67;;;19.60;99.90;;;;;;5031836;28;20234;-78
2021/09/19 08:33:48;;;;;;;3.72;3.42;;;19.80;99.90;;;;;;5032138;28;20722;-76
2021/09/19 08:36:15;;;;;;;3.92;3.55;;;20.10;99.90;;;;;;5043578;28;20696;-78
2021/09/19 08:38:42;;;;;;;4.63;4.22;;;20.30;99.90;;;;;;5038260;28;20301;-77
2021/09/19 08:41:09;;;;;;;4.18;3.88;;;20.60;99.90;;;;;;5037451;28;20225;-78
2021/09/19 08:43:36;;;;;;;3.95;3.45;;;20.90;99.90;;;;;;5038013;28;20227;-78
2021/09/19 08:46:03;;;;;;;4.15;3.80;;;21.00;99.90;;;;;;5036910;28;20230;-78
2021/09/19 08:48:32;;;;;;;3.35;3.15;;;21.10;99.90;;;;;;5037506;28;20479;-78
2021/09/19 08:51:01;;;;;;;4.57;4.13;;;21.30;99.90;;;;;;5038513;28;20222;-78
2021/09/19 08:53:28;;;;;;;3.67;3.38;;;21.40;99.90;;;;;;5041113;28;20222;-78
2021/09/19 08:55:55;;;;;;;3.72;3.42;;;21.40;99.90;;;;;;5038560;28;20321;-78
2021/09/19 08:58:22;;;;;;;4.07;3.60;;;21.50;99.90;;;;;;5038388;28;20228;-78
2021/09/19 09:00:49;;;;;;;4.15;3.72;;;21.50;99.90;;;;;;5040947;28;20315;-78
2021/09/19 09:03:19;;;;;;;3.88;3.58;;;21.30;99.90;;;;;;5039019;28;20630;-79
2021/09/19 09:05:55;;;;;;;3.72;3.42;;;21.10;99.90;;;;;;5040468;28;20241;-78
2021/09/19 09:08:23;;;;;;;4.15;3.55;;;20.90;99.90;;;;;;5039777;28;20299;-79
2021/09/19 09:10:53;;;;;;;3.28;3.08;;;20.70;99.90;;;;;;5041284;28;20304;-79
2021/09/19 09:13:22;;;;;;;3.78;3.47;;;20.60;99.90;;;;;;5039662;28;20218;-77
2021/09/19 09:15:51;;;;;;;3.53;3.22;;;20.50;99.90;;;;;;5038802;28;20230;-78
2021/09/19 09:18:30;;;;;;;3.85;3.55;;;20.50;99.90;;;;;;5038829;28;20214;-78
2021/09/19 09:21:01;;;;;;;6.22;4.28;;;20.20;99.90;;;;;;5035654;28;20347;-78
2021/09/19 09:23:33;;;;;;;3.78;3.47;;;20.00;99.90;;;;;;5037653;28;20227;-78
2021/09/19 09:26:20;;;;;;;3.50;3.20;;;19.90;99.90;;;;;;5036731;28;20222;-79
2021/09/19 09:28:50;;;;;;;3.38;2.90;;;20.00;99.90;;;;;;5035818;28;20226;-78
2021/09/19 09:31:30;;;;;;;3.72;3.42;;;19.90;99.90;;;;;;5040874;28;20223;-79
2021/09/19 09:34:15;;;;;;;3.42;2.90;;;19.80;99.90;;;;;;5042911;28;20226;-76
2021/09/19 09:36:45;;;;;;;3.42;3.13;;;19.90;99.90;;;;;;5038753;28;20289;-77
2021/09/19 09:39:29;;;;;;;2.92;2.72;;;19.80;99.90;;;;;;5042181;28;20227;-79
2021/09/19 09:41:58;;;;;;;3.40;3.10;;;19.70;99.90;;;;;;5040870;28;20284;-77
2021/09/19 09:44:30;;;;;;;4.50;2.50;;;19.70;99.90;;;;;;5040572;28;20218;-79
2021/09/19 09:46:58;;;;;;;2.90;2.70;;;19.60;99.90;;;;;;5041025;28;20292;-78
2021/09/19 09:49:38;;;;;;;2.78;2.58;;;19.60;99.90;;;;;;5037197;28;20696;-78
2021/09/19 09:52:07;;;;;;;2.40;2.30;;;19.50;99.90;;;;;;5032685;28;20239;-78
2021/09/19 09:54:48;;;;;;;2.38;2.28;;;19.50;99.90;;;;;;5041578;28;20234;-78
2021/09/19 09:57:33;;;;;;;2.60;2.40;;;19.50;99.90;;;;;;5041865;28;20288;-78
2021/09/19 10:00:01;;;;;;;2.10;2.00;;;19.50;99.90;;;;;;5036807;28;20264;-78
2021/09/19 10:02:28;;;;;;;2.13;2.03;;;19.60;99.90;;;;;;5037914;28;20296;-78
2021/09/19 10:04:56;;;;;;;2.90;2.10;;;19.60;99.90;;;;;;5037776;28;20360;-77
2021/09/19 10:07:23;;;;;;;3.53;2.30;;;19.70;99.90;;;;;;5039996;28;20877;-77
2021/09/19 10:09:52;;;;;;;2.33;2.15;;;19.70;99.90;;;;;;5033609;28;20226;-78
2021/09/19 10:12:21;;;;;;;2.75;2.30;;;19.70;99.90;;;;;;5035272;28;20232;-77
2021/09/19 10:14:49;;;;;;;2.45;2.25;;;19.70;99.90;;;;;;5039750;28;20291;-77
2021/09/19 10:17:17;;;;;;;2.40;2.20;;;19.60;99.90;;;;;;5035747;28;20884;-79
2021/09/19 10:19:44;;;;;;;2.65;2.45;;;19.50;99.90;;;;;;5035627;28;20272;-77
2021/09/19 10:22:17;;;;;;;2.83;2.47;;;19.50;99.90;;;;;;5038506;28;20243;-76
2021/09/19 10:24:45;;;;;;;2.90;2.70;;;19.40;99.90;;;;;;5030813;28;20234;-77
2021/09/19 10:27:22;;;;;;;3.13;2.92;;;19.40;99.90;;;;;;5036519;28;21842;-77
2021/09/19 10:29:56;;;;;;;2.55;2.35;;;19.50;99.90;;;;;;5041342;28;20228;-77
2021/09/19 10:32:34;;;;;;;2.90;2.70;;;19.40;99.90;;;;;;5037166;28;20231;-77
2021/09/19 10:35:01;;;;;;;2.33;2.20;;;19.40;99.90;;;;;;5038171;28;20231;-76
2021/09/19 10:37:49;;;;;;;2.38;2.17;;;19.40;99.90;;;;;;5043419;28;20233;-76
2021/09/19 10:40:31;;;;;;;5.28;2.78;;;19.50;99.90;;;;;;5039263;28;20219;-77
2021/09/19 10:43:00;;;;;;;3.72;3.00;;;19.30;99.90;;;;;;5039062;28;20218;-76
2021/09/19 10:45:38;;;;;;;3.30;3.00;;;19.30;99.90;;;;;;5039368;28;20226;-77
2021/09/19 10:48:14;;;;;;;3.92;3.22;;;19.30;99.90;;;;;;5037349;28;20222;-77
2021/09/19 10:50:42;;;;;;;3.63;3.33;;;19.30;99.90;;;;;;5040933;28;20273;-76
2021/09/19 10:53:24;;;;;;;3.78;3.03;;;19.30;99.90;;;;;;5039847;28;20249;-76
2021/09/19 10:55:54;;;;;;;4.28;3.80;;;19.30;99.90;;;;;;5038250;28;20223;-78
2021/09/19 10:58:24;;;;;;;5.55;4.47;;;19.40;99.90;;;;;;5039580;28;20280;-79
2021/09/19 11:01:09;;;;;;;5.40;4.55;;;19.40;99.90;;;;;;5037671;28;20241;-78
2021/09/19 11:03:37;;;;;;;5.40;4.70;;;19.40;99.90;;;;;;5039614;28;20223;-78
2021/09/19 11:06:04;;;;;;;5.40;4.90;;;19.40;99.90;;;;;;5043252;28;20313;-77
2021/09/19 11:08:40;;;;;;;5.03;4.32;;;19.50;99.90;;;;;;5045866;28;20231;-77
2021/09/19 11:11:20;;;;;;;4.60;4.20;;;19.50;99.90;;;;;;5044765;28;20666;-78
2021/09/19 11:13:57;;;;;;;4.60;4.20;;;19.40;99.90;;;;;;5042653;28;20297;-77
2021/09/19 11:16:39;;;;;;;4.45;4.05;;;19.40;99.90;;;;;;5044817;28;20210;-78
2021/09/19 11:19:11;;;;;;;3.75;3.45;;;19.40;99.90;;;;;;5044057;28;20258;-77
2021/09/19 11:21:45;;;;;;;3.15;2.95;;;19.40;99.90;;;;;;5044986;28;20222;-77
2021/09/19 11:24:15;;;;;;;3.30;2.95;;;19.40;99.90;;;;;;5041283;28;20237;-76
2021/09/19 11:26:44;;;;;;;5.05;4.10;;;19.40;99.90;;;;;;5039952;28;20222;-76
2021/09/19 11:29:14;;;;;;;4.30;4.00;;;19.40;99.90;;;;;;5042054;28;20782;-78
2021/09/19 11:31:43;;;;;;;4.82;3.75;;;19.10;99.90;;;;;;5045611;28;20654;-78
2021/09/19 11:34:13;;;;;;;3.10;2.90;;;18.90;99.90;;;;;;5042757;28;22042;-76
2021/09/19 11:36:42;;;;;;;3.55;3.25;;;18.90;99.90;;;;;;5039936;28;20245;-77
2021/09/19 11:39:10;;;;;;;3.20;3.00;;;18.90;99.90;;;;;;5045424;28;20309;-76
2021/09/19 11:41:37;;;;;;;3.13;2.92;;;19.10;99.90;;;;;;5048367;28;20221;-77
2021/09/19 11:44:05;;;;;;;2.55;2.35;;;19.20;99.90;;;;;;5044028;28;20348;-76
2021/09/19 11:46:34;;;;;;;3.17;2.83;;;19.20;99.90;;;;;;5049093;28;20500;-76
2021/09/19 11:49:03;;;;;;;2.72;2.40;;;19.40;99.90;;;;;;5045208;28;20231;-77
2021/09/19 11:51:30;;;;;;;2.78;2.58;;;19.50;99.90;;;;;;5044185;28;20227;-77
2021/09/19 11:53:58;;;;;;;3.15;2.80;;;19.60;99.90;;;;;;5044936;28;20226;-76
2021/09/19 11:56:27;;;;;;;3.30;3.03;;;19.70;99.90;;;;;;5044104;28;20231;-76
2021/09/19 11:58:55;;;;;;;3.22;2.92;;;19.70;99.90;;;;;;5041991;28;20227;-76
2021/09/19 12:01:28;;;;;;;3.60;3.30;;;19.60;99.90;;;;;;5032745;28;20239;-76
2021/09/19 12:04:04;;;;;;;2.88;2.67;;;19.60;99.90;;;;;;5033311;28;20223;-77
2021/09/19 12:06:32;;;;;;;2.60;2.40;;;19.60;99.90;;;;;;5038336;28;20306;-78
2021/09/19 12:09:00;;;;;;;2.90;2.70;;;19.50;99.90;;;;;;5039786;28;20238;-80
2021/09/19 12:11:45;;;;;;;7.78;2.92;;;19.50;99.90;;;;;;5035754;28;20607;-77
2021/09/19 12:14:14;;;;;;;2.72;2.40;;;19.30;99.90;;;;;;5036159;28;20227;-77
2021/09/19 12:16:42;;;;;;;2.72;2.53;;;19.40;99.90;;;;;;5034007;28;20233;-77
2021/09/19 12:19:21;;;;;;;2.70;2.50;;;19.30;99.90;;;;;;5034190;28;20226;-79
2021/09/19 12:21:58;;;;;;;2.85;2.53;;;19.30;99.90;;;;;;5040296;28;20759;-78
2021/09/19 12:24:27;;;;;;;3.15;2.80;;;19.30;99.90;;;;;;5028927;28;20219;-78
2021/09/19 12:27:13;;;;;;;3.25;3.03;;;19.20;99.90;;;;;;5035517;28;20296;-77
2021/09/19 12:29:40;;;;;;;2.70;2.50;;;19.30;99.90;;;;;;5036446;28;20225;-78
2021/09/19 12:32:08;;;;;;;2.30;2.20;;;19.40;99.90;;;;;;5069143;22;20229;-74
2021/09/19 12:34:37;;;;;;;2.70;2.50;;;19.40;99.90;;;;;;5062049;28;20256;-74
2021/09/19 12:37:05;;;;;;;3.47;3.28;;;19.40;99.90;;;;;;5066760;28;20228;-74
2021/09/19 12:39:33;;;;;;;3.78;3.47;;;19.30;99.90;;;;;;5082430;28;20253;-74
2021/09/19 12:42:04;;;;;;;2.97;2.78;;;19.00;99.90;;;;;;5061610;28;20240;-74
2021/09/19 12:44:33;;;;;;;3.47;3.28;;;19.00;99.90;;;;;;5047869;28;20311;-75
2021/09/19 12:47:03;;;;;;;4.32;3.97;;;18.90;99.90;;;;;;5046998;28;20218;-75
2021/09/19 12:49:32;;;;;;;5.15;4.75;;;18.70;99.90;;;;;;5049324;28;20230;-73
2021/09/19 12:52:05;;;;;;;74.65;8.82;;;18.40;99.90;;;;;;5046935;28;20231;-74
2021/09/19 12:54:33;;;;;;;22.15;5.93;;;18.10;99.90;;;;;;5046414;28;20709;-75